Newcastle, WY

10:09 PM MDT on May 21, 2018 (GMT -0600)
Mondell

Weather History for KECS - December, 2013

Change the Weather History Date:

Sunday, December 15, 2013

  Actual Average (KCUT) Record (KCUT)
Temperature  
Mean Temperature 36 °F 23 °F  
Max Temperature 46 °F 33 °F 62 °F (1952)
Min Temperature 26 °F 13 °F -25 °F (1945)
Degree Days  
Heating Degree Days 29 42  
Month to date heating degree days 619  
Since 1 July heating degree days 2800  
Cooling Degree Days 0 0  
Month to date cooling degree days 0  
Year to date cooling degree days 177  
Moisture  
Dew Point 24 °F    
Average Humidity 66    
Maximum Humidity 80    
Minimum Humidity 40    
Precipitation  
Precipitation 0.00 in 0.01 in 0.17 in (1937)
Month to date precipitation 0.17  
Year to date precipitation 18.74  
Sea Level Pressure  
Sea Level Pressure 29.99 in    
Wind  
Wind Speed 2 mph (North)    
Max Wind Speed 9 mph    
Max Gust Speed -    
Visibility 10 miles    
Events      
T = Trace of Precipitation, MM = Missing Value Source: NWS Daily Summary

Daily Weather History Graph

Daily Weather History Graph

Search for Another Location

Airport or City:

Astronomy

Dec. 15, 2013 Rise Set
Actual Time 7:24 AM MST 4:20 PM MST
Civil Twilight 6:51 AM MST 4:53 PM MST
Nautical Twilight 6:15 AM MST 5:29 PM MST
Astronomical Twilight 5:40 AM MST 6:04 PM MST
Moon 3:28 PM MST (12/15) 5:40 AM MST (12/15)
Length of Visible Light 10h 01m
Length of Day
8h 55m
Waxing Gibbous, 98% of the Moon is Illuminated
Dec 15
Waxing Gibbous
Dec 17
Full
Dec 25
Last Quarter
Jan 1
New
Jan 7
First Quarter

Hourly Weather History & Observations

Time (MST) Temp. Windchill Dew Point Humidity Pressure Visibility Wind Dir Wind Speed Gust Speed Precip Events Conditions
12:15 AM 32.0 °F - 26.6 °F 80% 30.06 in 10.0 mi Calm Calm - N/A   Overcast
12:35 AM 32.0 °F - 26.6 °F 80% 30.06 in 10.0 mi Calm Calm - N/A   Overcast
12:55 AM 32.0 °F - 24.8 °F 75% 30.04 in 10.0 mi Calm Calm - N/A   Overcast
1:15 AM 32.0 °F 28.7 °F 26.6 °F 80% 30.04 in 10.0 mi South 3.5 mph - N/A   Overcast
1:35 AM 32.0 °F 27.5 °F 26.6 °F 80% 30.04 in 10.0 mi ESE 4.6 mph - N/A   Overcast
1:55 AM 32.0 °F 25.6 °F 26.6 °F 80% 30.03 in 10.0 mi SE 6.9 mph - N/A   Mostly Cloudy
2:15 AM 32.0 °F 28.7 °F 24.8 °F 75% 30.03 in 10.0 mi SE 3.5 mph - N/A   Mostly Cloudy
2:35 AM 32.0 °F - 24.8 °F 75% 30.03 in 10.0 mi Calm Calm - N/A   Mostly Cloudy
2:55 AM 33.8 °F - 23.0 °F 65% 30.03 in 10.0 mi Calm Calm - N/A   Mostly Cloudy
3:15 AM 33.8 °F - 23.0 °F 65% 30.02 in 10.0 mi Calm Calm - N/A   Overcast
3:35 AM 33.8 °F - 23.0 °F 65% 30.02 in 10.0 mi Calm Calm - N/A   Mostly Cloudy
3:55 AM 33.8 °F 29.6 °F 21.2 °F 60% 30.02 in 10.0 mi WNW 4.6 mph - N/A   Overcast
4:15 AM 33.8 °F 28.6 °F 23.0 °F 65% 30.01 in 10.0 mi West 5.8 mph - N/A   Overcast
4:35 AM 33.8 °F 29.6 °F 23.0 °F 65% 30.00 in 10.0 mi WNW 4.6 mph - N/A   Mostly Cloudy
4:55 AM 33.8 °F 30.8 °F 23.0 °F 65% 30.00 in 10.0 mi NNE 3.5 mph - N/A   Overcast
5:15 AM 33.8 °F 30.8 °F 23.0 °F 65% 30.00 in 10.0 mi NNW 3.5 mph - N/A   Overcast
5:35 AM 32.0 °F 28.7 °F 23.0 °F 69% 29.99 in 10.0 mi North 3.5 mph - N/A   Mostly Cloudy
5:55 AM 32.0 °F 28.7 °F 23.0 °F 69% 29.99 in 10.0 mi NNE 3.5 mph - N/A   Scattered Clouds
6:15 AM 30.2 °F - 23.0 °F 75% 29.99 in 10.0 mi Calm Calm - N/A   Scattered Clouds
6:35 AM 30.2 °F 25.4 °F 23.0 °F 75% 29.99 in 10.0 mi NNE 4.6 mph - N/A   Scattered Clouds
6:55 AM 30.2 °F 24.3 °F 23.0 °F 75% 29.98 in 10.0 mi North 5.8 mph - N/A   Scattered Clouds
7:15 AM 30.2 °F 23.4 °F 23.0 °F 75% 29.99 in 10.0 mi North 6.9 mph - N/A   Clear
7:35 AM 28.4 °F 20.4 °F 23.0 °F 80% 29.98 in 10.0 mi North 8.1 mph - N/A   Clear
7:55 AM 30.2 °F 25.4 °F 23.0 °F 75% 29.98 in 10.0 mi NNW 4.6 mph - N/A   Clear
8:15 AM 26.6 °F 22.6 °F 21.2 °F 80% 29.98 in 10.0 mi NW 3.5 mph - N/A   Clear
8:35 AM 30.2 °F 26.7 °F 23.0 °F 75% 29.99 in 10.0 mi WNW 3.5 mph - N/A   Clear
8:55 AM 32.0 °F 24.8 °F 23.0 °F 69% 30.00 in 10.0 mi North 8.1 mph - N/A   Clear
9:15 AM 32.0 °F 28.7 °F 23.0 °F 69% 30.00 in 10.0 mi WNW 3.5 mph - N/A   Clear
9:35 AM 32.0 °F - 24.8 °F 75% 30.00 in 10.0 mi Calm Calm - N/A   Clear
9:55 AM 32.0 °F - 24.8 °F 75% 30.01 in 10.0 mi Calm Calm - N/A   Clear
10:15 AM 35.6 °F - 24.8 °F 65% 30.01 in 10.0 mi Calm Calm - N/A   Clear
10:35 AM 37.4 °F - 24.8 °F 60% 30.01 in 10.0 mi Calm Calm - N/A   Clear
10:55 AM 37.4 °F - 23.0 °F 56% 30.00 in 10.0 mi Calm Calm - N/A   Clear
11:15 AM 41.0 °F - 23.0 °F 49% 29.99 in 10.0 mi Calm Calm - N/A   Clear
11:35 AM 42.8 °F - 23.0 °F 46% 29.98 in 10.0 mi North - - N/A   Clear
11:55 AM 42.8 °F - 21.2 °F 42% 29.97 in 10.0 mi Calm Calm - N/A   Clear
12:15 PM 42.8 °F - 21.2 °F 42% 29.97 in 10.0 mi Calm Calm - N/A   Clear
12:35 PM 44.6 °F - 23.0 °F 43% 29.97 in 10.0 mi Calm Calm - N/A   Clear
12:55 PM 44.6 °F - 23.0 °F 43% 29.97 in 10.0 mi Calm Calm - N/A   Clear
1:15 PM 46.4 °F - 23.0 °F 40% 29.95 in 10.0 mi Calm Calm - N/A   Clear
1:35 PM 46.4 °F - 23.0 °F 40% 29.95 in 10.0 mi Calm Calm - N/A   Clear
1:55 PM 46.4 °F - 23.0 °F 40% 29.95 in 10.0 mi Calm Calm - N/A   Clear
2:15 PM 46.4 °F - 23.0 °F 40% 29.94 in 10.0 mi Calm Calm - N/A   Clear
2:35 PM 44.6 °F - 24.8 °F 46% 29.94 in 10.0 mi Calm Calm - N/A   Clear
2:55 PM 44.6 °F - 23.0 °F 43% 29.95 in 10.0 mi Calm Calm - N/A   Clear
3:15 PM 46.4 °F - 23.0 °F 40% 29.95 in 10.0 mi Calm Calm - N/A   Clear
3:35 PM 42.8 °F - 24.8 °F 49% 29.96 in 10.0 mi Calm Calm - N/A   Clear
3:55 PM 41.0 °F 39.0 °F 24.8 °F 53% 29.96 in 10.0 mi North 3.5 mph - N/A   Clear
4:15 PM 37.4 °F 34.9 °F 26.6 °F 65% 29.97 in 10.0 mi NE 3.5 mph - N/A   Clear
4:35 PM 35.6 °F 30.7 °F 26.6 °F 70% 29.96 in 10.0 mi NNE 5.8 mph - N/A   Clear
4:55 PM 35.6 °F 30.7 °F 26.6 °F 70% 29.97 in 10.0 mi North 5.8 mph - N/A   Clear
5:15 PM 33.8 °F 28.6 °F 26.6 °F 75% 29.96 in 10.0 mi North 5.8 mph - N/A   Clear
5:35 PM 33.8 °F 27.7 °F 26.6 °F 75% 29.97 in 10.0 mi North 6.9 mph - N/A   Clear
5:55 PM 33.8 °F 26.4 °F 26.6 °F 75% 29.96 in 10.0 mi North 9.2 mph - N/A   Clear
6:15 PM 33.8 °F 26.4 °F 26.6 °F 75% 29.97 in 10.0 mi North 9.2 mph - N/A   Clear
6:35 PM 33.8 °F 30.8 °F 24.8 °F 70% 29.97 in 10.0 mi SW 3.5 mph - N/A   Clear
6:55 PM 30.2 °F - 23.0 °F 75% 29.98 in 10.0 mi Calm Calm - N/A   Clear
7:15 PM 32.0 °F 26.4 °F 23.0 °F 69% 29.99 in 10.0 mi NE 5.8 mph - N/A   Clear
7:35 PM 33.8 °F - 23.0 °F 65% 29.98 in 10.0 mi Calm Calm - N/A   Clear
7:55 PM 30.2 °F - 23.0 °F 75% 29.98 in 10.0 mi Calm Calm - N/A   Clear
8:15 PM 30.2 °F 26.7 °F 23.0 °F 75% 29.99 in 10.0 mi North 3.5 mph - N/A   Clear
8:35 PM 30.2 °F 24.3 °F 23.0 °F 75% 29.98 in 10.0 mi North 5.8 mph - N/A   Clear
8:55 PM 30.2 °F 22.6 °F 23.0 °F 75% 29.98 in 10.0 mi North 8.1 mph - N/A   Clear
9:15 PM 30.2 °F - 23.0 °F 75% 29.97 in 10.0 mi Calm Calm - N/A   Clear
9:35 PM 30.2 °F - 23.0 °F 75% 29.97 in 10.0 mi Calm Calm - N/A   Clear
9:55 PM 28.4 °F 23.3 °F 23.0 °F 80% 29.97 in 10.0 mi NE 4.6 mph - N/A   Clear
10:15 PM 28.4 °F - 21.2 °F 74% 29.98 in 10.0 mi Calm Calm - N/A   Clear
10:35 PM 28.4 °F 23.3 °F 21.2 °F 74% 29.98 in 10.0 mi North 4.6 mph - N/A   Clear
10:55 PM 26.6 °F 21.2 °F 21.2 °F 80% 29.99 in 10.0 mi NNW 4.6 mph - N/A   Clear
11:15 PM 26.6 °F 17.5 °F 21.2 °F 80% 29.99 in 10.0 mi North 9.2 mph - N/A   Clear
11:35 PM 28.4 °F 22.2 °F 21.2 °F 74% 29.99 in 10.0 mi NNE 5.8 mph - N/A   Clear
11:55 PM 28.4 °F 22.2 °F 21.2 °F 74% 29.99 in 10.0 mi North 5.8 mph - N/A   Clear